createdAt,value
2018-05-12T00:02:29.475Z,10
2018-05-12T00:11:09.476Z,11
2018-05-12T00:21:09.796Z,11
2018-05-12T00:31:10.985Z,12
2018-05-12T00:42:21.669Z,11
2018-05-12T00:52:24.140Z,11
2018-05-12T01:01:03.880Z,13
2018-05-12T01:11:21.928Z,11
2018-05-12T01:21:02.094Z,11
2018-05-12T01:31:07.592Z,11
2018-05-12T01:41:04.261Z,12
2018-05-12T01:51:49.453Z,12
2018-05-12T02:01:03.783Z,12
2018-05-12T02:11:05.306Z,11
2018-05-12T02:21:03.073Z,12
2018-05-12T02:31:04.037Z,12
2018-05-12T02:41:08.372Z,13
2018-05-12T02:51:09.439Z,13
2018-05-12T03:01:08.057Z,13
2018-05-12T03:12:31.991Z,14
2018-05-12T03:21:03.612Z,15
2018-05-12T03:31:05.412Z,14
2018-05-12T03:41:04.524Z,16
2018-05-12T03:51:03.779Z,15
2018-05-12T04:01:04.689Z,16
2018-05-12T04:11:07.413Z,15
2018-05-12T04:21:02.845Z,17
2018-05-12T04:31:03.387Z,16
2018-05-12T04:42:24.308Z,16
2018-05-12T04:51:02.990Z,17
2018-05-12T05:01:22.406Z,17
2018-05-12T05:11:02.971Z,18
2018-05-12T05:21:25.708Z,16
2018-05-12T05:31:01.420Z,17
2018-05-12T05:41:05.232Z,16
2018-05-12T05:51:04.300Z,17
2018-05-12T06:01:02.748Z,15
2018-05-12T06:11:05.512Z,16
2018-05-12T06:21:09.298Z,15
2018-05-12T06:31:04.977Z,15
2018-05-12T06:41:03.259Z,15
2018-05-12T06:51:04.836Z,11
2018-05-12T07:01:07.503Z,12
2018-05-12T07:11:28.510Z,11
2018-05-12T07:21:02.715Z,11
2018-05-12T07:31:03.621Z,11
2018-05-12T07:41:09.409Z,10
2018-05-12T07:51:02.985Z,10
2018-05-12T08:01:06.083Z,10
2018-05-12T08:11:05.910Z,8
2018-05-12T08:22:32.185Z,8
2018-05-12T08:32:31.914Z,8
2018-05-12T08:41:11.461Z,8
2018-05-12T08:51:04.167Z,8
2018-05-12T09:01:04.111Z,9
2018-05-12T09:11:27.461Z,8
2018-05-12T09:22:26.487Z,10
2018-05-12T09:32:12.475Z,9
2018-05-12T09:41:49.973Z,8
2018-05-12T09:50:48.732Z,7
2018-05-12T10:00:48.675Z,8
2018-05-12T10:10:48.741Z,7
2018-05-12T10:20:48.732Z,5
2018-05-12T10:30:48.767Z,7
2018-05-12T10:40:48.785Z,7
2018-05-12T10:50:48.719Z,6
2018-05-12T11:00:49.288Z,7
2018-05-12T11:10:48.854Z,8
2018-05-12T11:20:48.838Z,7
2018-05-12T11:30:49.062Z,7
2018-05-12T11:41:00.569Z,7
2018-05-12T11:50:53.911Z,9
2018-05-12T12:00:48.895Z,9
2018-05-12T12:10:48.848Z,8
2018-05-12T12:20:48.819Z,10
2018-05-12T12:30:48.793Z,7
2018-05-12T12:40:48.749Z,8
2018-05-12T12:50:48.857Z,7
2018-05-12T13:00:48.792Z,8
2018-05-12T13:10:48.852Z,7
2018-05-12T13:20:48.821Z,5
2018-05-12T13:30:48.773Z,6
2018-05-12T13:40:48.833Z,6
2018-05-12T13:50:48.799Z,5
2018-05-12T14:00:48.891Z,6
2018-05-12T14:10:48.771Z,6
2018-05-12T14:20:48.764Z,6
2018-05-12T14:30:55.052Z,6
2018-05-12T14:40:55.048Z,6
2018-05-12T14:51:10.531Z,7
2018-05-12T15:00:48.882Z,6
2018-05-12T15:10:48.787Z,5
2018-05-12T15:20:48.893Z,7
2018-05-12T15:30:48.802Z,6
2018-05-12T15:40:50.179Z,7
2018-05-12T15:50:49.016Z,7
2018-05-12T16:00:48.875Z,7
2018-05-12T16:10:48.858Z,6
2018-05-12T16:20:48.776Z,7
2018-05-12T16:30:48.915Z,6
2018-05-12T16:40:48.904Z,6
2018-05-12T16:50:49.035Z,6
2018-05-12T17:00:48.857Z,7
2018-05-12T17:10:48.952Z,9
2018-05-12T17:20:48.921Z,9
2018-05-12T17:30:48.879Z,9
2018-05-12T17:40:48.906Z,10
2018-05-12T17:50:48.939Z,12
2018-05-12T18:00:48.834Z,12
2018-05-12T18:10:48.892Z,12
2018-05-12T18:20:48.909Z,13
2018-05-12T18:30:48.948Z,15
2018-05-12T18:40:48.875Z,16
2018-05-12T18:50:48.948Z,17
2018-05-12T19:00:50.058Z,16
2018-05-12T19:10:49.167Z,17
2018-05-12T19:20:49.282Z,21
2018-05-12T19:30:49.212Z,19
2018-05-12T19:40:48.935Z,19
2018-05-12T19:50:48.935Z,21
2018-05-12T20:00:49.045Z,21
2018-05-12T20:10:49.024Z,23
2018-05-12T20:20:49.283Z,23
2018-05-12T20:30:49.241Z,26
2018-05-12T20:40:49.371Z,28
2018-05-12T20:50:50.979Z,28
2018-05-12T21:00:49.633Z,29
2018-05-12T21:10:49.251Z,29
2018-05-12T21:20:49.361Z,28
2018-05-12T21:30:49.464Z,31
2018-05-12T21:40:49.052Z,29
2018-05-12T21:50:49.630Z,29
2018-05-12T22:00:49.576Z,31
2018-05-12T22:10:49.477Z,30
2018-05-12T22:20:49.471Z,32
2018-05-12T22:30:50.135Z,32
2018-05-12T22:40:49.494Z,31
2018-05-12T22:50:49.208Z,31
2018-05-12T23:00:49.760Z,32
2018-05-12T23:10:48.992Z,34
2018-05-12T23:20:50.059Z,31
2018-05-12T23:30:49.468Z,33
2018-05-12T23:40:49.487Z,33
2018-05-12T23:50:48.976Z,34
